Time;durP1;ratioP1;P1;durP2;ratioP2;P2;SDS_P1;SDS_P2;PMS_P1;PMS_P2;Temp;Humidity;BMP_temperature;BMP_pressure;BME280_temperature;BME280_humidity;BME280_pressure;Samples;Min_cycle;Max_cycle;Signal;HPM_P1;HPM_P2
2022/08/20 00:00:19;;;;;;;9.45;4.57;;;;;;;;;;5048864;28;20029;-78
2022/08/20 00:02:48;;;;;;;11.82;5.43;;;;;;;;;;5048502;28;20090;-74
2022/08/20 00:05:14;;;;;;;9.70;5.32;;;;;;;;;;5051455;28;20037;-74
2022/08/20 00:07:40;;;;;;;13.63;6.10;;;;;;;;;;5041614;28;20100;-74
2022/08/20 00:10:08;;;;;;;14.55;6.47;;;;;;;;;;5055037;28;20504;-74
2022/08/20 00:12:34;;;;;;;9.43;5.85;;;;;;;;;;5064295;28;20408;-74
2022/08/20 00:15:01;;;;;;;9.45;5.47;;;;;;;;;;5056167;28;20032;-74
2022/08/20 00:17:34;;;;;;;10.55;5.05;;;;;;;;;;5048365;28;20080;-71
2022/08/20 00:20:00;;;;;;;9.07;4.68;;;;;;;;;;5035985;28;20037;-72
2022/08/20 00:22:26;;;;;;;12.35;5.22;;;;;;;;;;5041591;28;20048;-76
2022/08/20 00:24:52;;;;;;;12.13;6.75;;;;;;;;;;5047757;28;20037;-73
2022/08/20 00:27:18;;;;;;;11.45;5.70;;;;;;;;;;5051928;28;20123;-73
2022/08/20 00:29:44;;;;;;;13.02;5.43;;;;;;;;;;5055206;28;20092;-73
2022/08/20 00:32:10;;;;;;;13.05;5.18;;;;;;;;;;5070409;28;20119;-74
2022/08/20 00:34:36;;;;;;;9.35;5.00;;;19.00;99.90;;;;;;5050484;28;20030;-73
2022/08/20 00:37:02;;;;;;;15.20;5.15;;;;;;;;;;5036666;28;20075;-73
2022/08/20 00:39:28;;;;;;;10.77;4.45;;;;;;;;;;5068319;28;20079;-73
2022/08/20 00:41:54;;;;;;;11.30;5.22;;;;;;;;;;5046128;28;20492;-74
2022/08/20 00:44:21;;;;;;;7.80;5.15;;;;;;;;;;5039221;28;20030;-73
2022/08/20 00:46:48;;;;;;;10.60;4.93;;;;;;;;;;5059254;28;20033;-73
2022/08/20 00:49:27;;;;;;;15.07;5.80;;;;;;;;;;5064515;28;20028;-74
2022/08/20 00:51:56;;;;;;;12.77;5.28;;;;;;;;;;5054713;28;20037;-74
2022/08/20 00:54:28;;;;;;;12.77;5.35;;;18.90;99.90;;;;;;5037254;28;20034;-73
2022/08/20 00:56:56;;;;;;;13.43;5.32;;;;;;;;;;5057778;28;20059;-74
2022/08/20 00:59:24;;;;;;;11.48;5.20;;;;;;;;;;5059166;28;20113;-74
2022/08/20 01:01:51;;;;;;;15.70;5.80;;;;;;;;;;5074536;28;20029;-74
2022/08/20 01:04:17;;;;;;;12.20;5.55;;;;;;;;;;5033960;28;20634;-77
2022/08/20 01:06:43;;;;;;;8.32;5.68;;;;;;;;;;5057353;28;20040;-74
2022/08/20 01:09:10;;;;;;;20.45;6.25;;;;;;;;;;5034594;28;20025;-73
2022/08/20 01:11:36;;;;;;;10.93;5.20;;;;;;;;;;5066170;28;20040;-78
2022/08/20 01:16:55;;;;;;;;;;;;;;;;;;5046966;28;20156;-74
2022/08/20 01:19:25;;;;;;;8.68;5.22;;;;;;;;;;5033704;28;19921;-74
2022/08/20 01:21:51;;;;;;;14.82;5.97;;;;;;;;;;5047605;28;20026;-74
2022/08/20 01:24:24;;;;;;;12.55;5.22;;;;;;;;;;5057755;28;20054;-73
2022/08/20 01:26:50;;;;;;;13.50;5.30;;;;;;;;;;5040418;28;20057;-73
2022/08/20 01:29:23;;;;;;;16.33;6.22;;;;;;;;;;5062644;28;20131;-73
2022/08/20 01:31:49;;;;;;;13.82;5.53;;;;;;;;;;5049226;28;20032;-74
2022/08/20 01:34:16;;;;;;;11.50;5.53;;;;;;;;;;5048097;28;20045;-73
2022/08/20 01:36:47;;;;;;;7.75;5.10;;;18.50;99.90;;;;;;5043704;28;20035;-74
2022/08/20 01:39:16;;;;;;;11.80;5.70;;;;;;;;;;5050761;28;20043;-74
2022/08/20 01:41:45;;;;;;;16.50;4.95;;;;;;;;;;5052760;28;20032;-74
2022/08/20 01:44:11;;;;;;;11.88;4.63;;;18.50;99.90;;;;;;5052904;28;20103;-74
2022/08/20 01:46:39;;;;;;;10.93;4.70;;;;;;;;;;5049453;28;20029;-74
2022/08/20 01:49:10;;;;;;;10.65;5.07;;;;;;;;;;5047019;28;20041;-73
2022/08/20 01:51:36;;;;;;;14.00;5.07;;;;;;;;;;5060622;28;20041;-77
2022/08/20 01:54:03;;;;;;;10.05;6.13;;;18.40;99.90;;;;;;5068122;28;20041;-74
2022/08/20 01:56:31;;;;;;;9.23;4.75;;;;;;;;;;5050888;28;20067;-75
2022/08/20 01:58:59;;;;;;;9.05;5.10;;;;;;;;;;5078108;28;20439;-77
2022/08/20 02:01:34;;;;;;;15.00;4.65;;;18.30;99.90;;;;;;5046098;28;20442;-74
2022/08/20 02:04:01;;;;;;;10.48;4.80;;;;;;;;;;5055473;28;20029;-74
2022/08/20 02:06:28;;;;;;;13.30;4.97;;;;;;;;;;5062347;28;20033;-74
2022/08/20 02:09:01;;;;;;;12.73;5.00;;;;;;;;;;5050112;28;20033;-74
2022/08/20 02:11:28;;;;;;;11.98;5.10;;;;;;;;;;5039305;28;20061;-75
2022/08/20 02:13:55;;;;;;;12.65;5.20;;;;;;;;;;5066658;28;20041;-74
2022/08/20 02:16:28;;;;;;;10.98;4.85;;;;;;;;;;5042944;28;20049;-74
2022/08/20 02:18:57;;;;;;;11.32;5.05;;;;;;;;;;5061829;28;20036;-75
2022/08/20 02:21:24;;;;;;;12.65;5.70;;;;;;;;;;5045180;28;20020;-74
2022/08/20 02:23:50;;;;;;;13.63;4.65;;;;;;;;;;5056285;28;20381;-74
2022/08/20 02:26:18;;;;;;;15.82;5.10;;;;;;;;;;5046231;28;20025;-76
2022/08/20 02:28:48;;;;;;;13.40;5.10;;;17.80;99.90;;;;;;5052523;28;20033;-74
2022/08/20 02:31:15;;;;;;;9.18;4.40;;;;;;;;;;5047494;28;20041;-75
2022/08/20 02:33:41;;;;;;;11.00;4.68;;;;;;;;;;5045756;28;20037;-74
2022/08/20 02:36:07;;;;;;;9.57;5.20;;;17.70;99.90;;;;;;5034585;28;20107;-74
2022/08/20 02:38:33;;;;;;;12.02;4.22;;;;;;;;;;5046616;28;20323;-74
2022/08/20 02:41:00;;;;;;;13.65;4.55;;;;;;;;;;5031853;28;20108;-74
2022/08/20 02:43:26;;;;;;;10.43;4.00;;;;;;;;;;5048661;28;20496;-74
2022/08/20 02:45:52;;;;;;;11.85;5.45;;;;;;;;;;5046534;28;20049;-74
2022/08/20 02:48:21;;;;;;;13.60;4.82;;;;;;;;;;5055004;28;20028;-75
2022/08/20 02:50:52;;;;;;;13.68;5.00;;;;;;;;;;5047694;28;20335;-75
2022/08/20 02:53:18;;;;;;;8.13;4.63;;;;;;;;;;5037358;28;20036;-74
2022/08/20 02:55:44;;;;;;;11.63;5.20;;;;;;;;;;5049403;28;20025;-75
2022/08/20 02:58:11;;;;;;;13.40;5.30;;;;;;;;;;5045490;28;20121;-74
2022/08/20 03:00:37;;;;;;;9.60;5.05;;;;;;;;;;5063003;28;20029;-75
2022/08/20 03:03:03;;;;;;;7.63;4.15;;;;;;;;;;5045584;28;20503;-75
2022/08/20 03:05:29;;;;;;;12.52;4.53;;;;;;;;;;5034931;28;20465;-79
2022/08/20 03:07:55;;;;;;;10.43;4.57;;;;;;;;;;5049013;28;20090;-77
2022/08/20 03:10:23;;;;;;;10.70;4.70;;;;;;;;;;5035056;28;20033;-73
2022/08/20 03:12:49;;;;;;;13.35;4.93;;;;;;;;;;5042761;28;20454;-75
2022/08/20 03:15:15;;;;;;;12.50;4.82;;;;;;;;;;5043433;28;20397;-74
2022/08/20 03:17:41;;;;;;;14.52;4.40;;;;;;;;;;5040890;28;20059;-78
2022/08/20 03:20:07;;;;;;;9.07;4.78;;;;;;;;;;5069556;28;20028;-73
2022/08/20 03:22:34;;;;;;;8.38;4.38;;;;;;;;;;5050505;28;20523;-76
2022/08/20 03:25:00;;;;;;;13.75;4.70;;;;;;;;;;5015371;28;20542;-74
2022/08/20 03:27:26;;;;;;;13.52;5.35;;;;;;;;;;5041067;28;20484;-74
2022/08/20 03:29:52;;;;;;;13.68;5.60;;;;;;;;;;5044197;28;20064;-74
2022/08/20 03:32:18;;;;;;;11.00;3.95;;;;;;;;;;5045981;28;20109;-76
2022/08/20 03:34:44;;;;;;;8.90;4.20;;;;;;;;;;5060626;28;20111;-74
2022/08/20 03:37:10;;;;;;;11.15;4.20;;;;;;;;;;5059951;28;20164;-74
2022/08/20 03:39:36;;;;;;;12.63;4.90;;;;;;;;;;5053116;28;20036;-74
2022/08/20 03:42:03;;;;;;;13.80;4.50;;;;;;;;;;5063451;28;20502;-73
2022/08/20 03:44:29;;;;;;;10.40;4.10;;;;;;;;;;5067009;28;20377;-74
2022/08/20 03:46:55;;;;;;;8.90;3.92;;;;;;;;;;5030813;28;20033;-74
2022/08/20 03:49:22;;;;;;;12.82;3.70;;;;;;;;;;5071790;28;20040;-75
2022/08/20 03:51:48;;;;;;;21.80;4.72;;;;;;;;;;5067081;28;20029;-74
2022/08/20 03:54:14;;;;;;;10.10;4.28;;;;;;;;;;5058783;28;20103;-77
2022/08/20 03:56:40;;;;;;;10.32;3.83;;;;;;;;;;5051561;28;20603;-75
2022/08/20 03:59:07;;;;;;;11.15;3.83;;;;;;;;;;5045568;28;20040;-74
2022/08/20 04:01:33;;;;;;;10.60;4.47;;;;;;;;;;5061797;28;20116;-74
2022/08/20 04:03:59;;;;;;;9.50;4.15;;;;;;;;;;5040736;28;20025;-74
2022/08/20 04:06:28;;;;;;;16.48;4.43;;;;;;;;;;5075304;28;20067;-74
2022/08/20 04:08:54;;;;;;;11.45;4.50;;;;;;;;;;5061843;28;20457;-74
2022/08/20 04:11:20;;;;;;;14.52;3.95;;;;;;;;;;5037695;28;20029;-73
2022/08/20 04:13:46;;;;;;;16.13;4.20;;;;;;;;;;5050553;28;20370;-74
2022/08/20 04:16:12;;;;;;;10.50;4.30;;;;;;;;;;5057052;28;20079;-75
2022/08/20 04:18:38;;;;;;;6.55;3.97;;;;;;;;;;5045200;28;20716;-73
2022/08/20 04:21:04;;;;;;;12.85;3.92;;;;;;;;;;5045052;28;20051;-77
2022/08/20 04:23:30;;;;;;;10.63;4.75;;;;;;;;;;5042605;28;20081;-73
2022/08/20 04:25:57;;;;;;;8.57;3.53;;;17.20;99.90;;;;;;5061765;28;20026;-74
2022/08/20 04:28:25;;;;;;;14.95;4.15;;;;;;;;;;5054150;28;20139;-74
2022/08/20 04:30:52;;;;;;;9.40;4.15;;;17.30;99.90;;;;;;5058831;28;20021;-74
2022/08/20 04:33:19;;;;;;;13.15;4.70;;;;;;;;;;5047798;28;20036;-76
2022/08/20 04:35:45;;;;;;;8.77;3.95;;;;;;;;;;5050793;28;20075;-74
2022/08/20 04:38:17;;;;;;;12.00;4.28;;;;;;;;;;5050984;28;20033;-73
2022/08/20 04:40:53;;;;;;;8.57;4.00;;;;;;;;;;5046820;28;20025;-74
2022/08/20 04:43:24;;;;;;;16.35;5.43;;;16.90;99.90;;;;;;5053617;28;20032;-73
2022/08/20 04:45:51;;;;;;;8.65;3.80;;;;;;;;;;5055121;28;20047;-74
2022/08/20 04:48:17;;;;;;;11.50;5.00;;;;;;;;;;5053097;28;20481;-76
2022/08/20 04:50:45;;;;;;;14.82;3.70;;;;;;;;;;5049183;28;20029;-73
2022/08/20 04:53:13;;;;;;;13.68;4.82;;;;;;;;;;5033682;28;20022;-74
2022/08/20 04:55:42;;;;;;;7.95;3.67;;;;;;;;;;5072502;28;20082;-75
2022/08/20 04:58:09;;;;;;;10.85;4.07;;;;;;;;;;5053193;28;20043;-77
2022/08/20 05:00:36;;;;;;;9.57;4.45;;;;;;;;;;5058150;28;20057;-74
2022/08/20 05:03:02;;;;;;;8.43;4.10;;;;;;;;;;5031649;28;20044;-74
2022/08/20 05:05:29;;;;;;;13.80;4.88;;;;;;;;;;5050861;28;20402;-74
2022/08/20 05:07:56;;;;;;;11.95;5.13;;;;;;;;;;5058622;28;20036;-74
2022/08/20 05:10:23;;;;;;;9.85;4.53;;;;;;;;;;5049245;28;20053;-74
2022/08/20 05:12:49;;;;;;;11.45;4.20;;;;;;;;;;5086267;28;20059;-74
2022/08/20 05:15:15;;;;;;;6.78;3.70;;;;;;;;;;5030326;28;20083;-74
2022/08/20 05:17:43;;;;;;;12.52;5.05;;;;;;;;;;5046171;28;20096;-74
2022/08/20 05:20:10;;;;;;;9.98;4.22;;;;;;;;;;5045402;28;20473;-74
2022/08/20 05:22:36;;;;;;;9.32;4.07;;;;;;;;;;5057801;28;20044;-77
2022/08/20 05:25:02;;;;;;;9.18;3.42;;;;;;;;;;5040597;28;20210;-77
2022/08/20 05:27:29;;;;;;;15.45;5.13;;;;;;;;;;5050880;28;20072;-74
2022/08/20 05:30:06;;;;;;;8.27;2.83;;;;;;;;;;5058044;28;20043;-74
2022/08/20 05:32:32;;;;;;;7.07;3.13;;;;;;;;;;5046387;28;20036;-78
2022/08/20 05:35:00;;;;;;;8.70;3.08;;;;;;;;;;5069189;28;20484;-75
2022/08/20 05:37:26;;;;;;;11.55;3.80;;;;;;;;;;5054785;28;20025;-75
2022/08/20 05:39:52;;;;;;;7.55;3.90;;;;;;;;;;5060600;28;20113;-76
2022/08/20 05:42:18;;;;;;;7.35;4.10;;;;;;;;;;5020966;28;20042;-77
2022/08/20 05:44:45;;;;;;;9.35;3.35;;;;;;;;;;5042733;28;20029;-73
2022/08/20 05:47:12;;;;;;;12.75;3.47;;;;;;;;;;5044097;28;20025;-73
2022/08/20 05:49:38;;;;;;;10.95;3.10;;;;;;;;;;5064107;28;20052;-74
2022/08/20 05:52:05;;;;;;;7.25;2.88;;;;;;;;;;5057176;28;20103;-73
2022/08/20 05:54:31;;;;;;;10.38;3.13;;;;;;;;;;5064157;28;20031;-74
2022/08/20 05:56:59;;;;;;;10.80;3.67;;;;;;;;;;5044118;28;20033;-74
2022/08/20 05:59:26;;;;;;;9.07;2.60;;;;;;;;;;5047075;28;20749;-73
2022/08/20 06:01:52;;;;;;;9.23;2.78;;;;;;;;;;5043275;28;20025;-75
2022/08/20 06:04:25;;;;;;;9.50;3.50;;;;;;;;;;5054566;28;20059;-74
2022/08/20 06:06:56;;;;;;;12.88;4.20;;;;;;;;;;5050479;28;20369;-73
2022/08/20 06:09:23;;;;;;;10.02;2.83;;;;;;;;;;5042889;28;20075;-75
2022/08/20 06:11:49;;;;;;;10.35;2.55;;;17.20;99.90;;;;;;5046615;28;20025;-75
2022/08/20 06:14:15;;;;;;;15.32;3.15;;;;;;;;;;5051845;28;20033;-75
2022/08/20 06:16:41;;;;;;;9.50;2.63;;;;;;;;;;5051185;28;20059;-76
2022/08/20 06:19:07;;;;;;;6.88;2.47;;;;;;;;;;5044904;28;20422;-75
2022/08/20 06:21:33;;;;;;;9.02;2.35;;;;;;;;;;5055733;28;20501;-75
2022/08/20 06:23:59;;;;;;;12.15;2.50;;;;;;;;;;5034862;28;20079;-75
2022/08/20 06:26:25;;;;;;;10.57;2.30;;;;;;;;;;5060509;28;20032;-75
2022/08/20 06:28:52;;;;;;;13.52;2.40;;;;;;;;;;5045451;28;20094;-74
2022/08/20 06:31:18;;;;;;;13.65;2.72;;;;;;;;;;5036644;28;20067;-74
2022/08/20 06:33:44;;;;;;;8.60;2.75;;;;;;;;;;5054951;28;20060;-77
2022/08/20 06:36:10;;;;;;;10.65;2.70;;;;;;;;;;5065916;28;20493;-75
2022/08/20 06:38:36;;;;;;;6.05;1.77;;;;;;;;;;5029714;28;20034;-74
2022/08/20 06:41:02;;;;;;;7.43;2.70;;;;;;;;;;5044003;28;20038;-73
2022/08/20 06:43:28;;;;;;;7.70;2.28;;;;;;;;;;5077437;28;20473;-76
2022/08/20 06:45:56;;;;;;;14.45;2.90;;;;;;;;;;5038373;28;20035;-76
2022/08/20 06:48:23;;;;;;;8.25;1.83;;;;;;;;;;5041706;28;20442;-76
2022/08/20 06:50:49;;;;;;;5.57;1.58;;;;;;;;;;5049843;28;20029;-76
2022/08/20 06:53:16;;;;;;;9.70;2.15;;;;;;;;;;5038827;28;20091;-76
2022/08/20 06:55:45;;;;;;;9.70;2.25;;;;;;;;;;5060053;28;20020;-76
2022/08/20 06:58:11;;;;;;;9.13;1.67;;;17.80;99.90;;;;;;5051718;28;20040;-77
2022/08/20 07:00:39;;;;;;;9.55;2.22;;;;;;;;;;5057310;28;20124;-77
2022/08/20 07:03:05;;;;;;;14.20;1.70;;;;;;;;;;5046140;28;20552;-77
2022/08/20 07:05:36;;;;;;;7.75;1.50;;;;;;;;;;5051904;28;20167;-76
2022/08/20 07:08:02;;;;;;;8.40;1.33;;;;;;;;;;5041174;28;20389;-75
2022/08/20 07:10:29;;;;;;;3.83;1.35;;;;;;;;;;5053252;28;20025;-76
2022/08/20 07:12:55;;;;;;;9.80;1.35;;;;;;;;;;5036771;28;20108;-76
2022/08/20 07:15:22;;;;;;;4.07;1.20;;;;;;;;;;5069118;28;20037;-75
2022/08/20 07:17:50;;;;;;;5.78;1.15;;;;;;;;;;5046234;28;20155;-76
2022/08/20 07:20:15;;;;;;;4.93;0.95;;;19.00;99.90;;;;;;5034443;28;20113;-73
2022/08/20 07:22:42;;;;;;;18.58;9.55;;;;;;;;;;5059015;28;20450;-71
2022/08/20 07:25:12;;;;;;;7.97;2.17;;;;;;;;;;5057953;28;20043;-73
2022/08/20 07:27:38;;;;;;;5.28;1.40;;;;;;;;;;5027808;28;20036;-75
2022/08/20 07:32:50;;;;;;;6.93;1.17;;;;;;;;;;5034407;28;20394;-76
2022/08/20 07:35:17;;;;;;;6.53;1.02;;;;;;;;;;5043531;28;20036;-74
2022/08/20 07:37:45;;;;;;;36.05;18.45;;;;;;;;;;5043851;28;20530;-75
2022/08/20 07:40:13;;;;;;;6.68;2.13;;;;;;;;;;5045077;28;20132;-76
2022/08/20 07:42:39;;;;;;;10.95;1.83;;;;;;;;;;5064570;28;20032;-76
2022/08/20 07:45:09;;;;;;;13.57;2.03;;;;;;;;;;5036675;28;20151;-76
2022/08/20 07:47:40;;;;;;;9.23;1.95;;;;;;;;;;5042068;28;20477;-75
2022/08/20 07:50:07;;;;;;;7.38;1.80;;;;;;;;;;5046327;28;20465;-74
2022/08/20 07:52:34;;;;;;;6.78;1.42;;;;;;;;;;5040764;28;20126;-74
2022/08/20 07:55:02;;;;;;;6.40;1.58;;;;;;;;;;5035181;28;20028;-76
2022/08/20 07:57:28;;;;;;;8.90;1.40;;;;;;;;;;5063179;28;20033;-75
2022/08/20 07:59:55;;;;;;;11.48;1.83;;;;;;;;;;5050556;28;20110;-74
2022/08/20 08:02:21;;;;;;;6.00;1.20;;;;;;;;;;5046648;28;20389;-76
2022/08/20 08:04:47;;;;;;;6.50;1.30;;;;;;;;;;5058106;28;20043;-75
2022/08/20 08:07:13;;;;;;;10.85;2.15;;;;;;;;;;5042791;28;20076;-75
2022/08/20 08:09:38;;;;;;;9.30;1.52;;;;;;;;;;5044052;28;20037;-75
2022/08/20 08:12:05;;;;;;;10.23;2.08;;;;;;;;;;5064883;28;20111;-75
2022/08/20 08:14:33;;;;;;;7.03;1.67;;;;;;;;;;5070673;28;20029;-75
2022/08/20 08:17:02;;;;;;;7.72;1.80;;;;;;;;;;5029472;28;20049;-74
2022/08/20 08:19:35;;;;;;;4.38;1.08;;;;;;;;;;5041573;28;20076;-75
2022/08/20 08:22:01;;;;;;;10.20;1.25;;;;;;;;;;5044098;28;20037;-74
2022/08/20 08:24:27;;;;;;;7.03;1.45;;;;;;;;;;5032063;28;20096;-75
2022/08/20 08:26:53;;;;;;;6.85;2.22;;;;;;;;;;5030628;28;20029;-75
2022/08/20 08:29:18;;;;;;;5.07;1.40;;;23.20;99.90;;;;;;5066487;28;20078;-74
2022/08/20 08:31:44;;;;;;;5.63;1.15;;;;;;;;;;5034934;28;20037;-74
2022/08/20 08:34:11;;;;;;;5.40;1.60;;;;;;;;;;5039544;28;20385;-75
2022/08/20 08:36:38;;;;;;;6.75;1.05;;;;;;;;;;5033068;28;20033;-75
2022/08/20 08:39:05;;;;;;;6.85;1.10;;;;;;;;;;5035388;28;20036;-75
2022/08/20 08:41:46;;;;;;;4.43;0.90;;;23.10;99.90;;;;;;5038747;28;20034;-75
2022/08/20 08:44:21;;;;;;;7.93;1.23;;;23.10;99.90;;;;;;5051607;28;20095;-75
2022/08/20 08:46:55;;;;;;;10.20;1.45;;;23.80;99.90;;;;;;5050362;28;20041;-74
2022/08/20 08:49:23;;;;;;;4.07;1.02;;;;;;;;;;5038819;28;20358;-75
2022/08/20 08:52:03;;;;;;;7.13;1.25;;;;;;;;;;5048381;28;20475;-75
2022/08/20 08:54:31;;;;;;;7.28;1.60;;;;;;;;;;5040325;28;20029;-75
2022/08/20 08:56:58;;;;;;;7.60;1.52;;;;;;;;;;5048029;28;20040;-75
2022/08/20 08:59:27;;;;;;;10.45;1.90;;;;;;;;;;5042310;28;20041;-75
2022/08/20 09:01:54;;;;;;;7.10;1.30;;;24.30;99.90;;;;;;5050152;28;20033;-73
2022/08/20 09:04:22;;;;;;;7.15;1.70;;;24.40;99.90;;;;;;5041420;28;20025;-76
2022/08/20 09:06:54;;;;;;;5.85;1.83;;;;;;;;;;5055003;28;20025;-74
2022/08/20 09:09:28;;;;;;;6.70;0.98;;;;;;;;;;5038323;28;20054;-75
2022/08/20 09:11:55;;;;;;;6.15;1.40;;;;;;;;;;5045214;28;20034;-76
2022/08/20 09:14:23;;;;;;;4.38;1.40;;;;;;;;;;5050932;28;20036;-76
2022/08/20 09:16:49;;;;;;;5.32;1.60;;;;;;;;;;5049592;28;20481;-77
2022/08/20 09:19:15;;;;;;;7.13;1.13;;;;;;;;;;5040057;28;20041;-75
2022/08/20 09:21:41;;;;;;;11.73;2.35;;;;;;;;;;5058787;28;20032;-75
2022/08/20 09:24:07;;;;;;;7.85;1.55;;;27.00;98.60;;;;;;5033644;28;20041;-76
2022/08/20 09:26:33;;;;;;;4.15;1.15;;;27.10;98.50;;;;;;5044070;28;20421;-75
2022/08/20 09:28:59;;;;;;;9.40;1.85;;;;;;;;;;5059140;28;20039;-77
2022/08/20 09:31:25;;;;;;;6.18;1.33;;;;;;;;;;5047000;28;20037;-78
2022/08/20 09:33:51;;;;;;;7.50;1.38;;;;;;;;;;5041883;28;20103;-75
2022/08/20 09:36:17;;;;;;;6.85;1.50;;;;;;;;;;5040107;28;20044;-78
2022/08/20 09:38:43;;;;;;;4.22;1.27;;;;;;;;;;5064302;28;20037;-76
2022/08/20 09:41:09;;;;;;;6.40;1.48;;;;;;;;;;5047166;28;20033;-77
2022/08/20 09:43:35;;;;;;;6.07;1.30;;;29.40;94.80;;;;;;5058568;28;20045;-77
2022/08/20 09:46:01;;;;;;;4.80;1.30;;;;;;;;;;5049088;28;20059;-76
2022/08/20 09:48:27;;;;;;;7.70;1.40;;;;;;;;;;5058407;28;20036;-76
2022/08/20 09:50:53;;;;;;;5.95;1.60;;;;;;;;;;5043944;28;20025;-74
2022/08/20 09:53:20;;;;;;;3.60;1.40;;;;;;;;;;5047290;28;20037;-74
2022/08/20 09:55:49;;;;;;;6.03;1.45;;;;;;;;;;5046087;28;21407;-74
2022/08/20 09:58:15;;;;;;;7.00;1.42;;;;;;;;;;5037321;28;20377;-74
2022/08/20 10:00:41;;;;;;;7.50;1.50;;;;;;;;;;5040820;28;20026;-74
2022/08/20 10:03:08;;;;;;;4.65;1.13;;;;;;;;;;5051336;28;20032;-75
2022/08/20 10:05:34;;;;;;;9.68;1.92;;;;;;;;;;5048542;28;20544;-74
2022/08/20 10:08:04;;;;;;;5.75;1.40;;;;;;;;;;5053797;28;20108;-75
2022/08/20 10:10:29;;;;;;;3.78;1.30;;;30.10;97.30;;;;;;5050225;28;20102;-77
2022/08/20 10:12:55;;;;;;;6.53;1.58;;;;;;;;;;5056662;28;20407;-75
2022/08/20 10:15:21;;;;;;;7.28;1.45;;;;;;;;;;5053374;28;20029;-75
2022/08/20 10:17:47;;;;;;;7.22;1.40;;;28.90;98.20;;;;;;5041845;28;20104;-75
2022/08/20 10:20:13;;;;;;;6.72;1.75;;;;;;;;;;5058555;28;20033;-74
2022/08/20 10:22:39;;;;;;;8.65;1.50;;;;;;;;;;5053038;28;20033;-74
2022/08/20 10:25:06;;;;;;;6.30;1.77;;;;;;;;;;5048825;28;20469;-74
2022/08/20 10:27:32;;;;;;;7.07;1.55;;;;;;;;;;5053124;28;20033;-74
2022/08/20 10:29:57;;;;;;;10.32;1.80;;;26.40;99.90;;;;;;5057341;28;20041;-76
2022/08/20 10:32:23;;;;;;;8.45;2.08;;;;;;;;;;5058158;28;20102;-75
2022/08/20 10:34:49;;;;;;;7.35;1.85;;;;;;;;;;5050022;28;20067;-75
2022/08/20 10:37:16;;;;;;;9.52;1.52;;;;;;;;;;5055018;28;20115;-76
2022/08/20 10:39:45;;;;;;;8.88;1.73;;;;;;;;;;5056615;28;20181;-75
2022/08/20 10:42:11;;;;;;;8.05;1.63;;;;;;;;;;5069946;28;20040;-75
2022/08/20 10:44:38;;;;;;;9.50;2.03;;;;;;;;;;5066504;28;20044;-74
2022/08/20 10:47:36;;;;;;;5.47;1.30;;;27.40;94.70;;;;;;5049135;28;20016;-75
2022/08/20 10:50:06;;;;;;;5.55;1.10;;;27.40;99.90;;;;;;5030305;28;20131;-74
2022/08/20 10:52:32;;;;;;;3.88;1.27;;;;;;;;;;5053508;28;20036;-75
2022/08/20 10:54:58;;;;;;;6.05;1.40;;;;;;;;;;5054434;28;20032;-77
2022/08/20 10:57:27;;;;;;;6.80;1.65;;;28.10;99.90;;;;;;5052576;28;20071;-77
2022/08/20 10:59:55;;;;;;;5.85;1.40;;;28.30;96.40;;;;;;5048132;28;20052;-76
2022/08/20 11:02:21;;;;;;;7.93;1.75;;;28.30;95.30;;;;;;5045708;28;20103;-74
2022/08/20 11:04:48;;;;;;;4.63;1.30;;;28.00;99.90;;;;;;5052614;28;20063;-75
2022/08/20 11:07:14;;;;;;;6.68;1.67;;;;;;;;;;5048946;28;20116;-75
2022/08/20 11:09:40;;;;;;;8.10;1.88;;;27.20;99.90;;;;;;5050938;28;20150;-74
2022/08/20 11:12:06;;;;;;;6.68;1.85;;;26.70;99.90;;;;;;5052048;28;20033;-75
2022/08/20 11:14:33;;;;;;;8.50;1.95;;;;;;;;;;5053696;28;20036;-75
2022/08/20 11:16:59;;;;;;;5.30;1.30;;;;;;;;;;5044761;28;20072;-75
2022/08/20 11:19:25;;;;;;;9.77;2.17;;;;;;;;;;5066002;28;20020;-75
2022/08/20 11:21:51;;;;;;;7.55;1.33;;;;;;;;;;5060933;28;20383;-75
2022/08/20 11:24:18;;;;;;;6.57;1.20;;;;;;;;;;5052388;28;20029;-75
2022/08/20 11:26:49;;;;;;;6.43;1.73;;;25.10;95.50;;;;;;5047374;28;20032;-76
2022/08/20 11:29:16;;;;;;;6.07;1.30;;;25.00;99.90;;;;;;5040839;28;20124;-77
2022/08/20 11:31:42;;;;;;;9.88;1.33;;;;;;;;;;5038897;28;20295;-77
2022/08/20 11:34:08;;;;;;;8.13;1.90;;;;;;;;;;5040226;28;20491;-75
2022/08/20 11:36:34;;;;;;;7.82;1.63;;;;;;;;;;5042913;28;20033;-73
2022/08/20 11:39:00;;;;;;;6.32;1.20;;;;;;;;;;5050245;28;20031;-73
2022/08/20 11:41:27;;;;;;;6.38;1.48;;;24.80;99.90;;;;;;5032352;28;20040;-73
2022/08/20 11:43:53;;;;;;;9.02;1.38;;;;;;;;;;5051101;28;20451;-73
2022/08/20 11:46:19;;;;;;;13.30;2.20;;;25.20;99.90;;;;;;5049099;28;20040;-73
2022/08/20 11:48:44;;;;;;;10.55;2.03;;;25.10;99.90;;;;;;5035737;28;20404;-72
2022/08/20 11:51:10;;;;;;;7.90;1.38;;;;;;;;;;5044727;28;20040;-73
2022/08/20 11:53:36;;;;;;;8.27;1.30;;;25.70;99.90;;;;;;5031782;28;20363;-73
2022/08/20 11:56:02;;;;;;;7.13;1.33;;;25.80;99.90;;;;;;5064336;28;20056;-73
2022/08/20 11:58:28;;;;;;;9.35;1.98;;;;;;;;;;5047260;28;20382;-75
2022/08/20 12:00:54;;;;;;;6.35;1.30;;;;;;;;;;5050145;28;20041;-74
2022/08/20 12:03:20;;;;;;;7.50;1.17;;;;;;;;;;5038366;28;20137;-73
2022/08/20 12:05:46;;;;;;;6.43;1.20;;;;;;;;;;5054959;28;20516;-74
2022/08/20 12:08:13;;;;;;;5.57;1.10;;;;;;;;;;5049992;28;20029;-73
2022/08/20 12:10:39;;;;;;;4.68;1.20;;;27.10;98.00;;;;;;5031342;28;20029;-73
2022/08/20 12:13:05;;;;;;;7.25;2.20;;;;;;;;;;5017925;28;20107;-74
2022/08/20 12:15:36;;;;;;;8.18;1.60;;;27.20;92.60;;;;;;5040159;28;20048;-74
2022/08/20 12:18:06;;;;;;;7.35;1.60;;;27.40;92.20;;;;;;5062929;28;20044;-74
2022/08/20 12:20:32;;;;;;;6.50;1.80;;;;;;;;;;5055151;28;20025;-73
2022/08/20 12:22:59;;;;;;;6.00;1.52;;;;;;;;;;5054601;28;20381;-74
2022/08/20 12:25:25;;;;;;;6.57;1.67;;;;;;;;;;5050871;28;20220;-74
2022/08/20 12:27:51;;;;;;;7.13;1.70;;;;;;;;;;5051364;28;20029;-74
2022/08/20 12:30:22;;;;;;;9.43;1.85;;;27.60;92.10;;;;;;5044266;28;20088;-73
2022/08/20 12:32:48;;;;;;;10.15;1.65;;;27.70;97.00;;;;;;5046583;28;23365;-74
2022/08/20 12:35:16;;;;;;;10.27;1.95;;;27.50;92.00;;;;;;5060396;28;20040;-74
2022/08/20 12:37:42;;;;;;;5.72;1.42;;;27.30;97.30;;;;;;5056930;28;20063;-73
2022/08/20 12:40:12;;;;;;;7.72;1.63;;;27.10;92.60;;;;;;5054714;28;20043;-73
2022/08/20 12:42:38;;;;;;;9.35;2.20;;;;;;;;;;5042886;28;20101;-73
2022/08/20 12:45:05;;;;;;;8.52;1.70;;;;;;;;;;5059174;28;20068;-73
2022/08/20 12:47:33;;;;;;;6.13;1.73;;;;;;;;;;5036108;28;20028;-73
2022/08/20 12:50:00;;;;;;;6.53;1.73;;;;;;;;;;5044151;28;20043;-73
2022/08/20 12:52:27;;;;;;;7.25;1.65;;;;;;;;;;5037671;28;20034;-70
2022/08/20 12:54:54;;;;;;;12.30;2.58;;;;;;;;;;5052863;28;20489;-71
2022/08/20 12:57:27;;;;;;;6.43;1.45;;;26.60;93.00;;;;;;5046253;28;20447;-70
2022/08/20 12:59:55;;;;;;;6.25;2.08;;;26.50;93.00;;;;;;5043430;28;20032;-70
2022/08/20 13:02:21;;;;;;;6.55;1.60;;;;;;;;;;5043723;28;20064;-69
2022/08/20 13:04:47;;;;;;;13.25;1.45;;;26.50;98.10;;;;;;5058131;28;20144;-69
2022/08/20 13:07:13;;;;;;;6.50;1.58;;;26.40;92.40;;;;;;5043817;28;20080;-69
2022/08/20 13:09:40;;;;;;;8.57;1.38;;;26.80;91.60;;;;;;5060373;28;20036;-70
2022/08/20 13:12:07;;;;;;;10.27;1.45;;;26.80;91.50;;;;;;5037677;28;20079;-70
2022/08/20 13:14:32;;;;;;;7.78;1.42;;;;;;;;;;5068302;28;20028;-69
2022/08/20 13:16:59;;;;;;;7.72;1.55;;;26.80;93.00;;;;;;5062230;28;20509;-69
2022/08/20 13:19:26;;;;;;;6.13;1.45;;;;;;;;;;5029000;28;20084;-68
2022/08/20 13:21:52;;;;;;;6.57;1.25;;;;;;;;;;5034107;28;20041;-72
2022/08/20 13:24:18;;;;;;;9.88;4.70;;;27.00;96.70;;;;;;5023753;28;20046;-71
2022/08/20 13:26:44;;;;;;;12.10;4.32;;;27.20;96.90;;;;;;5027360;28;20040;-71
2022/08/20 13:29:10;;;;;;;6.18;1.90;;;;;;;;;;5029640;28;20061;-73
2022/08/20 13:31:36;;;;;;;8.35;1.73;;;;;;;;;;5021975;28;20030;-73
2022/08/20 13:34:02;;;;;;;4.53;1.35;;;27.30;96.80;;;;;;5029788;28;20104;-72
2022/08/20 13:36:28;;;;;;;5.75;1.27;;;;;;;;;;5029943;28;20037;-72
2022/08/20 13:38:54;;;;;;;7.60;1.38;;;;;;;;;;5027389;28;20068;-73
2022/08/20 13:41:20;;;;;;;7.88;1.80;;;;;;;;;;5019511;28;20572;-73
2022/08/20 13:43:46;;;;;;;9.55;2.05;;;27.40;96.80;;;;;;5023790;28;20018;-71
2022/08/20 13:46:11;;;;;;;8.20;1.52;;;27.70;97.10;;;;;;5021486;28;20565;-72
2022/08/20 13:48:37;;;;;;;9.20;1.63;;;;;;;;;;5037280;28;20069;-72
2022/08/20 13:51:03;;;;;;;5.78;1.70;;;;;;;;;;5028879;28;20060;-73
2022/08/20 13:53:29;;;;;;;10.23;2.28;;;27.60;96.70;;;;;;5015458;28;20034;-71
2022/08/20 13:55:55;;;;;;;12.95;2.50;;;;;;;;;;5032657;28;20466;-73
2022/08/20 13:58:21;;;;;;;8.63;1.67;;;;;;;;;;5018558;28;20169;-72
2022/08/20 14:00:48;;;;;;;6.85;1.48;;;;;;;;;;5024270;28;20021;-72
2022/08/20 14:03:14;;;;;;;7.90;2.05;;;;;;;;;;5039917;28;20481;-74
2022/08/20 14:05:40;;;;;;;9.95;1.98;;;27.00;97.00;;;;;;5028630;28;20136;-72
2022/08/20 14:08:22;;;;;;;7.75;1.73;;;26.90;92.60;;;;;;5013310;28;20461;-76
2022/08/20 14:10:49;;;;;;;9.90;3.70;;;26.90;97.80;;;;;;5022890;28;20014;-71
2022/08/20 14:13:16;;;;;;;7.40;1.65;;;27.00;92.30;;;;;;5018760;28;20458;-72
2022/08/20 14:15:42;;;;;;;4.95;1.38;;;27.10;97.70;;;;;;5029544;28;20033;-74
2022/08/20 14:18:08;;;;;;;9.65;1.70;;;;;;;;;;5049577;28;20048;-73